map of KLUX home
Great Circle Mapper logo
KLUX - Airport
Location
City:  Laurens, South Carolina, United States
Name:Laurens County Airport
ICAO:KLUX
FAA:LUX

Details
Type:Airport (Airfield)
Use:Public/Civil
Latitude:3430'26"N (34.507111)
Longitude:8156'49"W (-81.946943)
Datum:WGS 1984
Elevation:697 ft (212 m)
Runways:1
Longest:4051 × 75 ft (1235 × 23 m), paved

Time
Time Zone:UTC-5 (DST-4)
Local Time:

Weather
METAR:KLUX 191735Z AUTO 06005KT 10SM SCT021 OVC027 23/14 A3016 RMK AO2

Related Locations
Nearby:
Farthest:MGV: 11468 mi / 18456 km
Margaret River, WA, AU

Find:

   beyond  
but within

Other Information
Maps:
NOTAMs:
Links:
Sources:

  
flag of United States
flag of South Carolina
  

Sectional Chart

Flight Planning
at skyvector.com

Satellite Image

Google Maps Satellite View

 

Copyright © 2004-2014 Karl L. Swartz. All rights reserved.
The Great Circle Mapper name and logo are trademarks of the Great Circle Mapper.
All other trademarks mentioned herein belong to their respective owners.
Please see credits for attibutions and further copyright information.

  Follow gcmap on Facebook Follow gcmap on Twitter

hCard Microformat

Geo Microformat